sensor_id;sensor_type;location;lat;lon;timestamp;pressure;altitude;pressure_sealevel;temperature;humidity
72157;BME280;60035;52.122;5.406;2023-05-01T00:01:43;102037.06;;;9.39;86.49
72157;BME280;60035;52.122;5.406;2023-05-01T00:04:09;102031.13;;;9.33;86.60
72157;BME280;60035;52.122;5.406;2023-05-01T00:06:36;102029.44;;;9.31;86.97
72157;BME280;60035;52.122;5.406;2023-05-01T00:09:02;102025.16;;;9.30;87.50
72157;BME280;60035;52.122;5.406;2023-05-01T00:11:29;102021.81;;;9.26;87.78
72157;BME280;60035;52.122;5.406;2023-05-01T00:13:55;102025.22;;;9.22;88.03
72157;BME280;60035;52.122;5.406;2023-05-01T00:16:22;102017.56;;;9.17;88.60
72157;BME280;60035;52.122;5.406;2023-05-01T00:18:48;102012.47;;;9.17;88.61
72157;BME280;60035;52.122;5.406;2023-05-01T00:21:15;102009.91;;;9.19;88.52
72157;BME280;60035;52.122;5.406;2023-05-01T00:23:42;102007.34;;;9.17;88.54
72157;BME280;60035;52.122;5.406;2023-05-01T00:26:08;101994.59;;;9.14;88.74
72157;BME280;60035;52.122;5.406;2023-05-01T00:28:34;102003.06;;;9.18;88.51
72157;BME280;60035;52.122;5.406;2023-05-01T00:31:01;101998.84;;;9.14;88.24
72157;BME280;60035;52.122;5.406;2023-05-01T00:33:27;101994.63;;;9.13;87.66
72157;BME280;60035;52.122;5.406;2023-05-01T00:35:54;101995.47;;;9.09;87.53
72157;BME280;60035;52.122;5.406;2023-05-01T00:38:21;101998.03;;;9.06;87.51
72157;BME280;60035;52.122;5.406;2023-05-01T00:40:51;101987.00;;;9.04;88.01
72157;BME280;60035;52.122;5.406;2023-05-01T00:43:18;101982.72;;;9.04;87.44
72157;BME280;60035;52.122;5.406;2023-05-01T00:45:44;101975.88;;;9.05;87.63
72157;BME280;60035;52.122;5.406;2023-05-01T00:48:11;101978.50;;;8.98;88.10
72157;BME280;60035;52.122;5.406;2023-05-01T00:50:39;101971.69;;;8.93;88.67
72157;BME280;60035;52.122;5.406;2023-05-01T00:53:06;101967.47;;;8.87;89.14
72157;BME280;60035;52.122;5.406;2023-05-01T00:55:32;101957.25;;;8.84;89.54
72157;BME280;60035;52.122;5.406;2023-05-01T00:58:01;101963.19;;;8.86;90.26
72157;BME280;60035;52.122;5.406;2023-05-01T01:00:28;101955.59;;;8.80;90.13
72157;BME280;60035;52.122;5.406;2023-05-01T01:02:55;101955.56;;;8.78;90.93
72157;BME280;60035;52.122;5.406;2023-05-01T01:05:24;101953.00;;;8.78;91.16
72157;BME280;60035;52.122;5.406;2023-05-01T01:10:45;101942.81;;;8.81;91.22
72157;BME280;60035;52.122;5.406;2023-05-01T01:13:19;101938.53;;;8.80;90.76
72157;BME280;60035;52.122;5.406;2023-05-01T01:18:51;101937.75;;;8.71;91.40
72157;BME280;60035;52.122;5.406;2023-05-01T01:21:29;101931.78;;;8.70;90.70
72157;BME280;60035;52.122;5.406;2023-05-01T01:24:28;101930.94;;;8.65;90.66
72157;BME280;60035;52.122;5.406;2023-05-01T01:27:57;101920.75;;;8.56;91.10
72157;BME280;60035;52.122;5.406;2023-05-01T01:39:45;101903.75;;;8.52;91.56
72157;BME280;60035;52.122;5.406;2023-05-01T01:42:29;101899.53;;;8.52;91.79
72157;BME280;60035;52.122;5.406;2023-05-01T01:45:01;101896.13;;;8.48;92.29
72157;BME280;60035;52.122;5.406;2023-05-01T01:47:32;101888.44;;;8.52;92.31
72157;BME280;60035;52.122;5.406;2023-05-01T01:50:02;101884.22;;;8.47;92.86
72157;BME280;60035;52.122;5.406;2023-05-01T01:52:31;101877.38;;;8.48;93.13
72157;BME280;60035;52.122;5.406;2023-05-01T01:55:06;101879.94;;;8.48;93.87
72157;BME280;60035;52.122;5.406;2023-05-01T01:57:35;101871.47;;;8.46;94.04
72157;BME280;60035;52.122;5.406;2023-05-01T02:00:06;101872.28;;;8.45;94.73
72157;BME280;60035;52.122;5.406;2023-05-01T02:02:37;101866.31;;;8.41;95.44
72157;BME280;60035;52.122;5.406;2023-05-01T02:05:10;101862.91;;;8.44;95.22
72157;BME280;60035;52.122;5.406;2023-05-01T02:07:39;101855.31;;;8.45;95.70
72157;BME280;60035;52.122;5.406;2023-05-01T02:10:11;101853.56;;;8.44;95.37
72157;BME280;60035;52.122;5.406;2023-05-01T02:12:39;101845.09;;;8.47;95.35
72157;BME280;60035;52.122;5.406;2023-05-01T02:15:07;101842.53;;;8.47;95.39
72157;BME280;60035;52.122;5.406;2023-05-01T02:17:35;101849.31;;;8.45;95.75
72157;BME280;60035;52.122;5.406;2023-05-01T02:20:04;101845.94;;;8.43;95.46
72157;BME280;60035;52.122;5.406;2023-05-01T02:22:33;101844.19;;;8.45;95.67
72157;BME280;60035;52.122;5.406;2023-05-01T02:25:00;101845.06;;;8.42;95.56
72157;BME280;60035;52.122;5.406;2023-05-01T02:27:35;101840.81;;;8.40;95.77
72157;BME280;60035;52.122;5.406;2023-05-01T02:30:03;101832.34;;;8.36;96.24
72157;BME280;60035;52.122;5.406;2023-05-01T02:32:31;101836.59;;;8.34;96.05
72157;BME280;60035;52.122;5.406;2023-05-01T02:34:57;101839.16;;;8.29;96.02
72157;BME280;60035;52.122;5.406;2023-05-01T02:37:26;101834.06;;;8.26;96.63
72157;BME280;60035;52.122;5.406;2023-05-01T02:39:53;101834.06;;;8.28;96.88
72157;BME280;60035;52.122;5.406;2023-05-01T02:42:21;101827.25;;;8.30;96.95
72157;BME280;60035;52.122;5.406;2023-05-01T02:44:59;101823.00;;;8.30;96.66
72157;BME280;60035;52.122;5.406;2023-05-01T02:47:27;101818.75;;;8.31;96.82
72157;BME280;60035;52.122;5.406;2023-05-01T02:49:56;101822.16;;;8.30;97.11
72157;BME280;60035;52.122;5.406;2023-05-01T02:52:24;101818.75;;;8.31;96.98
72157;BME280;60035;52.122;5.406;2023-05-01T02:54:51;101812.78;;;8.30;96.80
72157;BME280;60035;52.122;5.406;2023-05-01T02:57:17;101818.72;;;8.37;97.12
72157;BME280;60035;52.122;5.406;2023-05-01T02:59:45;101804.25;;;8.39;97.24
72157;BME280;60035;52.122;5.406;2023-05-01T03:02:12;101804.25;;;8.34;97.13
72157;BME280;60035;52.122;5.406;2023-05-01T03:04:38;101804.25;;;8.41;97.34
72157;BME280;60035;52.122;5.406;2023-05-01T03:07:05;101798.28;;;8.43;97.84
72157;BME280;60035;52.122;5.406;2023-05-01T03:09:31;101793.16;;;8.46;97.73
72157;BME280;60035;52.122;5.406;2023-05-01T03:11:57;101793.19;;;8.49;97.68
72157;BME280;60035;52.122;5.406;2023-05-01T03:14:26;101793.13;;;8.54;98.13
72157;BME280;60035;52.122;5.406;2023-05-01T03:16:54;101783.78;;;8.53;98.05
72157;BME280;60035;52.122;5.406;2023-05-01T03:19:21;101786.34;;;8.52;98.60
72157;BME280;60035;52.122;5.406;2023-05-01T03:21:47;101781.25;;;8.55;98.61
72157;BME280;60035;52.122;5.406;2023-05-01T03:24:14;101779.47;;;8.60;98.15
72157;BME280;60035;52.122;5.406;2023-05-01T03:26:40;101776.06;;;8.62;98.12
72157;BME280;60035;52.122;5.406;2023-05-01T03:29:07;101772.66;;;8.62;98.24
72157;BME280;60035;52.122;5.406;2023-05-01T03:31:33;101769.28;;;8.61;98.78
72157;BME280;60035;52.122;5.406;2023-05-01T03:34:00;101772.69;;;8.59;98.61
72157;BME280;60035;52.122;5.406;2023-05-01T03:36:27;101766.72;;;8.60;98.82
72157;BME280;60035;52.122;5.406;2023-05-01T03:38:53;101762.50;;;8.59;98.88
72157;BME280;60035;52.122;5.406;2023-05-01T03:41:19;101756.53;;;8.57;99.57
72157;BME280;60035;52.122;5.406;2023-05-01T03:43:46;101756.53;;;8.61;100.00
72157;BME280;60035;52.122;5.406;2023-05-01T03:46:13;101757.34;;;8.62;100.00
72157;BME280;60035;52.122;5.406;2023-05-01T03:48:39;101755.63;;;8.62;100.00
72157;BME280;60035;52.122;5.406;2023-05-01T03:51:06;101764.97;;;8.70;100.00
72157;BME280;60035;52.122;5.406;2023-05-01T03:53:32;101759.81;;;8.76;100.00
72157;BME280;60035;52.122;5.406;2023-05-01T03:55:58;101754.66;;;8.80;99.53
72157;BME280;60035;52.122;5.406;2023-05-01T03:58:25;101750.41;;;8.84;99.33
72157;BME280;60035;52.122;5.406;2023-05-01T04:00:54;101747.84;;;8.84;99.64
72157;BME280;60035;52.122;5.406;2023-05-01T04:03:23;101746.97;;;8.87;99.75
72157;BME280;60035;52.122;5.406;2023-05-01T04:05:50;101752.06;;;8.88;99.64
72157;BME280;60035;52.122;5.406;2023-05-01T04:08:16;101744.38;;;8.90;99.67
72157;BME280;60035;52.122;5.406;2023-05-01T04:10:43;101746.91;;;8.93;99.85
72157;BME280;60035;52.122;5.406;2023-05-01T04:13:09;101744.34;;;8.96;99.86
72157;BME280;60035;52.122;5.406;2023-05-01T04:15:37;101735.81;;;8.98;100.00
72157;BME280;60035;52.122;5.406;2023-05-01T04:18:04;101736.63;;;9.00;100.00
72157;BME280;60035;52.122;5.406;2023-05-01T04:20:30;101738.31;;;9.03;100.00
72157;BME280;60035;52.122;5.406;2023-05-01T04:22:58;101731.53;;;9.00;100.00
72157;BME280;60035;52.122;5.406;2023-05-01T04:25:27;101736.63;;;9.04;100.00
72157;BME280;60035;52.122;5.406;2023-05-01T04:27:53;101732.38;;;9.03;100.00
72157;BME280;60035;52.122;5.406;2023-05-01T04:30:20;101738.38;;;8.98;100.00
72157;BME280;60035;52.122;5.406;2023-05-01T04:32:46;101732.38;;;9.01;100.00
72157;BME280;60035;52.122;5.406;2023-05-01T04:35:13;101731.50;;;9.05;100.00
72157;BME280;60035;52.122;5.406;2023-05-01T04:37:39;101725.56;;;9.02;100.00
72157;BME280;60035;52.122;5.406;2023-05-01T04:40:09;101735.78;;;9.02;100.00
72157;BME280;60035;52.122;5.406;2023-05-01T04:42:40;101735.75;;;9.05;100.00
72157;BME280;60035;52.122;5.406;2023-05-01T04:45:07;101738.31;;;9.03;100.00
72157;BME280;60035;52.122;5.406;2023-05-01T04:47:34;101734.94;;;8.99;100.00
72157;BME280;60035;52.122;5.406;2023-05-01T04:50:00;101738.31;;;9.03;100.00
72157;BME280;60035;52.122;5.406;2023-05-01T04:52:27;101733.22;;;9.02;100.00
72157;BME280;60035;52.122;5.406;2023-05-01T04:54:53;101734.03;;;9.07;100.00
72157;BME280;60035;52.122;5.406;2023-05-01T04:57:20;101735.69;;;9.11;100.00
72157;BME280;60035;52.122;5.406;2023-05-01T04:59:46;101738.22;;;9.14;100.00
72157;BME280;60035;52.122;5.406;2023-05-01T05:02:13;101739.00;;;9.21;100.00
72157;BME280;60035;52.122;5.406;2023-05-01T05:04:39;101728.72;;;9.27;100.00
72157;BME280;60035;52.122;5.406;2023-05-01T05:07:06;101739.75;;;9.32;99.87
72157;BME280;60035;52.122;5.406;2023-05-01T05:09:34;101732.00;;;9.41;99.44
72157;BME280;60035;52.122;5.406;2023-05-01T05:12:01;101727.69;;;9.46;98.21
72157;BME280;60035;52.122;5.406;2023-05-01T05:14:30;101730.19;;;9.51;97.16
72157;BME280;60035;52.122;5.406;2023-05-01T05:16:56;101731.03;;;9.52;96.32
72157;BME280;60035;52.122;5.406;2023-05-01T05:19:23;101732.69;;;9.56;95.62
72157;BME280;60035;52.122;5.406;2023-05-01T05:21:49;101730.09;;;9.59;95.32
72157;BME280;60035;52.122;5.406;2023-05-01T05:24:16;101733.44;;;9.65;94.83
72157;BME280;60035;52.122;5.406;2023-05-01T05:26:42;101735.97;;;9.67;94.68
72157;BME280;60035;52.122;5.406;2023-05-01T05:29:08;101734.22;;;9.71;94.14
72157;BME280;60035;52.122;5.406;2023-05-01T05:31:35;101729.94;;;9.74;93.79
72157;BME280;60035;52.122;5.406;2023-05-01T05:34:02;101736.66;;;9.81;92.65
72157;BME280;60035;52.122;5.406;2023-05-01T05:36:28;101730.66;;;9.87;92.15
72157;BME280;60035;52.122;5.406;2023-05-01T05:38:55;101725.47;;;9.92;91.08
72157;BME280;60035;52.122;5.406;2023-05-01T05:41:21;101728.84;;;9.95;90.49
72157;BME280;60035;52.122;5.406;2023-05-01T05:43:48;101724.53;;;9.96;89.80
72157;BME280;60035;52.122;5.406;2023-05-01T05:46:14;101722.81;;;9.99;88.91
72157;BME280;60035;52.122;5.406;2023-05-01T05:48:41;101721.06;;;10.03;88.58
72157;BME280;60035;52.122;5.406;2023-05-01T05:51:07;101714.16;;;10.08;88.24
72157;BME280;60035;52.122;5.406;2023-05-01T05:53:33;101719.19;;;10.14;87.77
72157;BME280;60035;52.122;5.406;2023-05-01T05:56:00;101715.72;;;10.20;87.16
72157;BME280;60035;52.122;5.406;2023-05-01T05:58:26;101719.91;;;10.26;87.01
72157;BME280;60035;52.122;5.406;2023-05-01T06:00:53;101713.91;;;10.27;85.83
72157;BME280;60035;52.122;5.406;2023-05-01T06:03:23;101721.53;;;10.30;84.75
72157;BME280;60035;52.122;5.406;2023-05-01T06:05:53;101711.19;;;10.39;84.01
72157;BME280;60035;52.122;5.406;2023-05-01T06:08:21;101706.88;;;10.44;82.55
72157;BME280;60035;52.122;5.406;2023-05-01T06:10:47;101711.94;;;10.46;81.14
72157;BME280;60035;52.122;5.406;2023-05-01T06:13:14;101705.88;;;10.52;80.46
72157;BME280;60035;52.122;5.406;2023-05-01T06:15:41;101709.19;;;10.60;79.94
72157;BME280;60035;52.122;5.406;2023-05-01T06:18:09;101709.97;;;10.65;79.21
72157;BME280;60035;52.122;5.406;2023-05-01T06:20:35;101705.56;;;10.73;78.85
72157;BME280;60035;52.122;5.406;2023-05-01T06:23:02;101711.44;;;10.80;78.25
72157;BME280;60035;52.122;5.406;2023-05-01T06:25:28;101705.28;;;10.89;77.59
72157;BME280;60035;52.122;5.406;2023-05-01T06:27:55;101703.47;;;10.97;77.39
72157;BME280;60035;52.122;5.406;2023-05-01T06:30:21;101696.53;;;11.04;76.66
72157;BME280;60035;52.122;5.406;2023-05-01T06:32:48;101692.97;;;11.11;76.50
72157;BME280;60035;52.122;5.406;2023-05-01T06:35:15;101698.75;;;11.22;75.49
72157;BME280;60035;52.122;5.406;2023-05-01T06:37:41;101696.94;;;11.27;75.13
72157;BME280;60035;52.122;5.406;2023-05-01T06:40:09;101699.41;;;11.32;74.41
72157;BME280;60035;52.122;5.406;2023-05-01T06:42:36;101698.47;;;11.36;73.89
72157;BME280;60035;52.122;5.406;2023-05-01T06:45:04;101687.28;;;11.40;73.27
72157;BME280;60035;52.122;5.406;2023-05-01T06:47:31;101699.31;;;11.38;73.28
72157;BME280;60035;52.122;5.406;2023-05-01T06:49:57;101696.63;;;11.43;73.31
72157;BME280;60035;52.122;5.406;2023-05-01T06:52:27;101696.59;;;11.46;73.27
72157;BME280;60035;52.122;5.406;2023-05-01T06:54:56;101693.88;;;11.52;73.26
72157;BME280;60035;52.122;5.406;2023-05-01T06:57:23;101693.75;;;11.60;73.01
72157;BME280;60035;52.122;5.406;2023-05-01T06:59:49;101686.72;;;11.68;72.68
72157;BME280;60035;52.122;5.406;2023-05-01T07:02:19;101687.47;;;11.75;72.13
72157;BME280;60035;52.122;5.406;2023-05-01T07:04:46;101692.41;;;11.82;72.03
72157;BME280;60035;52.122;5.406;2023-05-01T07:07:12;101683.88;;;11.82;71.82
72157;BME280;60035;52.122;5.406;2023-05-01T07:09:39;101682.00;;;11.90;72.05
72157;BME280;60035;52.122;5.406;2023-05-01T07:12:06;101681.00;;;11.99;71.67
72157;BME280;60035;52.122;5.406;2023-05-01T07:14:33;101684.31;;;12.04;71.53
72157;BME280;60035;52.122;5.406;2023-05-01T07:17:01;101690.25;;;12.06;71.46
72157;BME280;60035;52.122;5.406;2023-05-01T07:19:28;101690.03;;;12.15;71.40
72157;BME280;60035;52.122;5.406;2023-05-01T07:21:54;101688.13;;;12.25;71.50
72157;BME280;60035;52.122;5.406;2023-05-01T07:24:21;101682.81;;;12.33;71.53
72157;BME280;60035;52.122;5.406;2023-05-01T07:26:47;101677.47;;;12.41;71.54
72157;BME280;60035;52.122;5.406;2023-05-01T07:29:14;101687.50;;;12.52;70.92
72157;BME280;60035;52.122;5.406;2023-05-01T07:31:42;101685.63;;;12.58;70.64
72157;BME280;60035;52.122;5.406;2023-05-01T07:34:08;101685.47;;;12.64;70.53
72157;BME280;60035;52.122;5.406;2023-05-01T07:36:35;101685.28;;;12.72;70.55
72157;BME280;60035;52.122;5.406;2023-05-01T07:39:01;101686.84;;;12.78;70.07
72157;BME280;60035;52.122;5.406;2023-05-01T07:41:29;101689.66;;;12.69;69.48
72157;BME280;60035;52.122;5.406;2023-05-01T07:43:59;101689.69;;;12.67;69.77
72157;BME280;60035;52.122;5.406;2023-05-01T07:46:26;101679.50;;;12.64;69.92
72157;BME280;60035;52.122;5.406;2023-05-01T07:48:52;101682.09;;;12.62;70.16
72157;BME280;60035;52.122;5.406;2023-05-01T07:51:21;101677.75;;;12.64;70.38
72157;BME280;60035;52.122;5.406;2023-05-01T07:53:48;101681.75;;;12.76;69.92
72157;BME280;60035;52.122;5.406;2023-05-01T07:56:15;101678.25;;;12.79;69.20
72157;BME280;60035;52.122;5.406;2023-05-01T07:58:44;101679.34;;;12.70;69.79
72157;BME280;60035;52.122;5.406;2023-05-01T08:01:13;101683.56;;;12.73;69.69
72157;BME280;60035;52.122;5.406;2023-05-01T08:03:40;101684.50;;;12.69;69.91
72157;BME280;60035;52.122;5.406;2023-05-01T08:06:07;101685.06;;;12.81;70.14
72157;BME280;60035;52.122;5.406;2023-05-01T08:08:33;101687.28;;;12.95;69.83
72157;BME280;60035;52.122;5.406;2023-05-01T08:11:00;101681.09;;;13.03;69.58
72157;BME280;60035;52.122;5.406;2023-05-01T08:13:26;101681.91;;;13.05;69.42
72157;BME280;60035;52.122;5.406;2023-05-01T08:15:53;101678.41;;;13.07;69.75
72157;BME280;60035;52.122;5.406;2023-05-01T08:18:20;101683.31;;;13.15;69.15
72157;BME280;60035;52.122;5.406;2023-05-01T08:20:47;101683.16;;;13.21;68.81
72157;BME280;60035;52.122;5.406;2023-05-01T08:23:15;101684.91;;;13.21;68.51
72157;BME280;60035;52.122;5.406;2023-05-01T08:25:42;101682.44;;;13.16;68.28
72157;BME280;60035;52.122;5.406;2023-05-01T08:28:08;101684.97;;;13.17;68.37
72157;BME280;60035;52.122;5.406;2023-05-01T08:30:35;101684.91;;;13.21;68.72
72157;BME280;60035;52.122;5.406;2023-05-01T08:33:02;101688.91;;;13.31;68.81
72157;BME280;60035;52.122;5.406;2023-05-01T08:35:28;101683.84;;;13.28;69.20
72157;BME280;60035;52.122;5.406;2023-05-01T08:37:55;101681.19;;;13.31;69.45
72157;BME280;60035;52.122;5.406;2023-05-01T08:40:22;101685.34;;;13.37;69.19
72157;BME280;60035;52.122;5.406;2023-05-01T08:42:49;101684.38;;;13.41;68.78
72157;BME280;60035;52.122;5.406;2023-05-01T08:45:17;101681.81;;;13.41;68.60
72157;BME280;60035;52.122;5.406;2023-05-01T08:47:44;101690.34;;;13.43;68.59
72157;BME280;60035;52.122;5.406;2023-05-01T08:50:12;101686.81;;;13.45;69.10
72157;BME280;60035;52.122;5.406;2023-05-01T08:52:40;101688.47;;;13.48;68.78
72157;BME280;60035;52.122;5.406;2023-05-01T08:55:13;101690.78;;;13.57;68.73
72157;BME280;60035;52.122;5.406;2023-05-01T08:57:46;101684.47;;;13.68;68.63
72157;BME280;60035;52.122;5.406;2023-05-01T09:00:17;101691.19;;;13.73;68.32
72157;BME280;60035;52.122;5.406;2023-05-01T09:02:47;101693.19;;;13.63;68.00
72157;BME280;60035;52.122;5.406;2023-05-01T09:05:16;101692.19;;;13.68;68.22
72157;BME280;60035;52.122;5.406;2023-05-01T09:07:43;101686.06;;;13.73;68.26
72157;BME280;60035;52.122;5.406;2023-05-01T09:10:15;101685.06;;;13.77;67.50
72157;BME280;60035;52.122;5.406;2023-05-01T09:12:46;101690.59;;;13.93;67.49
72157;BME280;60035;52.122;5.406;2023-05-01T09:15:14;101684.19;;;14.07;66.17
72157;BME280;60035;52.122;5.406;2023-05-01T09:17:41;101689.88;;;14.16;65.72
72157;BME280;60035;52.122;5.406;2023-05-01T09:20:10;101681.97;;;14.23;66.74
72157;BME280;60035;52.122;5.406;2023-05-01T09:22:37;101683.44;;;14.31;67.03
72157;BME280;60035;52.122;5.406;2023-05-01T09:25:04;101688.19;;;14.44;66.73
72157;BME280;60035;52.122;5.406;2023-05-01T09:27:35;101683.50;;;14.55;65.97
72157;BME280;60035;52.122;5.406;2023-05-01T09:30:02;101690.91;;;14.68;65.31
72157;BME280;60035;52.122;5.406;2023-05-01T09:32:31;101689.47;;;14.84;64.23
72157;BME280;60035;52.122;5.406;2023-05-01T09:35:12;101693.69;;;14.87;62.69
72157;BME280;60035;52.122;5.406;2023-05-01T09:37:39;101690.84;;;14.94;62.84
72157;BME280;60035;52.122;5.406;2023-05-01T09:40:13;101696.22;;;15.13;62.95
72157;BME280;60035;52.122;5.406;2023-05-01T09:42:48;101693.78;;;15.34;62.47
72157;BME280;60035;52.122;5.406;2023-05-01T09:45:16;101683.94;;;15.44;61.65
72157;BME280;60035;52.122;5.406;2023-05-01T09:47:46;101698.94;;;15.58;61.26
72157;BME280;60035;52.122;5.406;2023-05-01T09:50:34;101699.28;;;15.72;60.51
72157;BME280;60035;52.122;5.406;2023-05-01T09:53:01;101692.91;;;15.82;60.29
72157;BME280;60035;52.122;5.406;2023-05-01T09:55:30;101701.00;;;15.95;59.60
72157;BME280;60035;52.122;5.406;2023-05-01T09:57:56;101695.47;;;16.05;58.77
72157;BME280;60035;52.122;5.406;2023-05-01T10:00:24;101690.94;;;16.11;57.75
72157;BME280;60035;52.122;5.406;2023-05-01T10:02:51;101690.69;;;16.18;56.79
72157;BME280;60035;52.122;5.406;2023-05-01T10:05:18;101687.06;;;16.22;56.33
72157;BME280;60035;52.122;5.406;2023-05-01T10:07:59;101682.75;;;16.22;55.12
72157;BME280;60035;52.122;5.406;2023-05-01T10:10:26;101681.50;;;16.32;54.35
72157;BME280;60035;52.122;5.406;2023-05-01T10:12:53;101682.69;;;16.46;53.89
72157;BME280;60035;52.122;5.406;2023-05-01T10:15:20;101686.69;;;16.53;53.81
72157;BME280;60035;52.122;5.406;2023-05-01T10:17:52;101685.72;;;16.56;52.10
72157;BME280;60035;52.122;5.406;2023-05-01T10:20:19;101686.88;;;16.69;52.49
72157;BME280;60035;52.122;5.406;2023-05-01T10:22:46;101683.78;;;16.81;51.30
72157;BME280;60035;52.122;5.406;2023-05-01T10:25:15;101683.94;;;16.99;52.18
72157;BME280;60035;52.122;5.406;2023-05-01T10:27:42;101688.56;;;17.11;50.92
72157;BME280;60035;52.122;5.406;2023-05-01T10:30:13;101687.41;;;17.19;50.67
72157;BME280;60035;52.122;5.406;2023-05-01T10:32:40;101695.53;;;17.30;51.29
72157;BME280;60035;52.122;5.406;2023-05-01T10:35:18;101691.00;;;17.35;49.53
72157;BME280;60035;52.122;5.406;2023-05-01T10:38:07;101696.44;;;17.29;49.25
72157;BME280;60035;52.122;5.406;2023-05-01T10:40:45;101699.66;;;17.34;50.22
72157;BME280;60035;52.122;5.406;2023-05-01T10:45:47;101696.09;;;17.37;49.47
72157;BME280;60035;52.122;5.406;2023-05-01T10:51:11;101704.31;;;17.65;50.49
72157;BME280;60035;52.122;5.406;2023-05-01T10:53:43;101707.94;;;17.80;49.52
72157;BME280;60035;52.122;5.406;2023-05-01T10:58:57;101703.25;;;17.89;49.44
72157;BME280;60035;52.122;5.406;2023-05-01T11:01:28;101701.31;;;17.94;49.01
72157;BME280;60035;52.122;5.406;2023-05-01T11:04:05;101706.28;;;17.98;48.96
72157;BME280;60035;52.122;5.406;2023-05-01T11:06:35;101702.09;;;17.96;47.75
72157;BME280;60035;52.122;5.406;2023-05-01T11:09:52;101711.78;;;17.91;48.75
72157;BME280;60035;52.122;5.406;2023-05-01T11:17:51;101708.09;;;17.77;47.10
72157;BME280;60035;52.122;5.406;2023-05-01T11:22:55;101710.19;;;17.88;47.32
72157;BME280;60035;52.122;5.406;2023-05-01T11:25:24;101702.16;;;17.94;48.61
72157;BME280;60035;52.122;5.406;2023-05-01T11:27:56;101700.75;;;18.06;48.31
72157;BME280;60035;52.122;5.406;2023-05-01T11:30:23;101697.91;;;18.11;49.11
72157;BME280;60035;52.122;5.406;2023-05-01T11:32:50;101694.06;;;18.20;48.11
72157;BME280;60035;52.122;5.406;2023-05-01T11:35:22;101705.34;;;18.36;47.98
72157;BME280;60035;52.122;5.406;2023-05-01T11:37:52;101706.50;;;18.48;47.31
72157;BME280;60035;52.122;5.406;2023-05-01T11:40:29;101695.03;;;18.54;47.02
72157;BME280;60035;52.122;5.406;2023-05-01T11:43:00;101699.19;;;18.74;47.68
72157;BME280;60035;52.122;5.406;2023-05-01T11:45:28;101692.81;;;18.98;46.35
72157;BME280;60035;52.122;5.406;2023-05-01T11:47:55;101690.47;;;19.10;45.97
72157;BME280;60035;52.122;5.406;2023-05-01T11:50:21;101695.97;;;19.21;45.54
72157;BME280;60035;52.122;5.406;2023-05-01T11:52:56;101694.72;;;19.44;45.59
72157;BME280;60035;52.122;5.406;2023-05-01T11:55:35;101686.88;;;19.78;45.74
72157;BME280;60035;52.122;5.406;2023-05-01T11:58:01;101694.69;;;19.94;44.92
72157;BME280;60035;52.122;5.406;2023-05-01T12:00:34;101693.75;;;19.95;44.27
72157;BME280;60035;52.122;5.406;2023-05-01T12:03:05;101690.13;;;20.13;44.16
72157;BME280;60035;52.122;5.406;2023-05-01T12:05:33;101686.63;;;20.45;43.72
72157;BME280;60035;52.122;5.406;2023-05-01T12:10:38;101697.78;;;20.77;43.54
72157;BME280;60035;52.122;5.406;2023-05-01T12:13:06;101694.28;;;20.62;43.93
72157;BME280;60035;52.122;5.406;2023-05-01T12:15:36;101690.66;;;20.65;44.38
72157;BME280;60035;52.122;5.406;2023-05-01T12:18:06;101693.25;;;20.65;44.35
72157;BME280;60035;52.122;5.406;2023-05-01T12:20:41;101693.41;;;20.47;45.11
72157;BME280;60035;52.122;5.406;2023-05-01T12:23:12;101699.47;;;20.02;45.33
72157;BME280;60035;52.122;5.406;2023-05-01T12:25:39;101699.78;;;19.79;46.15
72157;BME280;60035;52.122;5.406;2023-05-01T12:28:16;101714.31;;;19.34;47.53
72157;BME280;60035;52.122;5.406;2023-05-01T12:30:45;101712.53;;;19.19;48.66
72157;BME280;60035;52.122;5.406;2023-05-01T12:33:17;101723.09;;;18.80;49.62
72157;BME280;60035;52.122;5.406;2023-05-01T12:35:46;101724.69;;;18.65;49.46
72157;BME280;60035;52.122;5.406;2023-05-01T12:38:16;101723.13;;;18.26;50.68
72157;BME280;60035;52.122;5.406;2023-05-01T12:40:54;101719.78;;;18.05;50.96
72157;BME280;60035;52.122;5.406;2023-05-01T12:43:29;101727.50;;;17.88;51.88
72157;BME280;60035;52.122;5.406;2023-05-01T12:46:12;101725.41;;;17.96;52.51
72157;BME280;60035;52.122;5.406;2023-05-01T12:48:43;101724.97;;;17.86;52.46
72157;BME280;60035;52.122;5.406;2023-05-01T12:51:17;101725.19;;;17.81;52.28
72157;BME280;60035;52.122;5.406;2023-05-01T12:53:44;101726.44;;;17.73;53.42
72157;BME280;60035;52.122;5.406;2023-05-01T12:56:23;101728.53;;;17.64;53.60
72157;BME280;60035;52.122;5.406;2023-05-01T12:58:53;101720.56;;;17.69;54.25
72157;BME280;60035;52.122;5.406;2023-05-01T13:01:27;101720.25;;;17.75;55.20
72157;BME280;60035;52.122;5.406;2023-05-01T13:03:57;101720.75;;;17.64;54.71
72157;BME280;60035;52.122;5.406;2023-05-01T13:06:31;101719.56;;;17.53;55.52
72157;BME280;60035;52.122;5.406;2023-05-01T13:09:08;101708.97;;;17.38;55.62
72157;BME280;60035;52.122;5.406;2023-05-01T13:11:38;101712.50;;;17.37;57.62
72157;BME280;60035;52.122;5.406;2023-05-01T13:14:06;101709.94;;;17.36;57.71
72157;BME280;60035;52.122;5.406;2023-05-01T13:16:43;101709.59;;;17.24;57.77
72157;BME280;60035;52.122;5.406;2023-05-01T13:19:10;101704.50;;;17.23;57.44
72157;BME280;60035;52.122;5.406;2023-05-01T13:21:45;101711.75;;;16.94;57.46
72157;BME280;60035;52.122;5.406;2023-05-01T13:24:12;101712.19;;;16.83;58.95
72157;BME280;60035;52.122;5.406;2023-05-01T13:26:39;101712.88;;;16.87;59.08
72157;BME280;60035;52.122;5.406;2023-05-01T13:29:05;101716.56;;;16.81;59.59
72157;BME280;60035;52.122;5.406;2023-05-01T13:31:41;101713.91;;;16.82;60.14
72157;BME280;60035;52.122;5.406;2023-05-01T13:34:09;101708.75;;;16.82;60.58
72157;BME280;60035;52.122;5.406;2023-05-01T13:36:36;101715.25;;;16.71;62.16